createdAt,value
2022-08-05T00:01:49.118Z,99.90
2022-08-05T00:04:17.772Z,99.90
2022-08-05T00:06:47.202Z,99.90
2022-08-05T00:09:19.526Z,99.90
2022-08-05T00:11:49.661Z,99.90
2022-08-05T00:14:27.874Z,99.90
2022-08-05T00:16:57.514Z,99.90
2022-08-05T00:19:33.097Z,99.90
2022-08-05T00:22:08.117Z,99.90
2022-08-05T00:24:42.286Z,99.90
2022-08-05T00:27:28.583Z,99.90
2022-08-05T00:29:57.668Z,99.90
2022-08-05T00:32:27.827Z,99.90
2022-08-05T00:35:06.559Z,99.90
2022-08-05T00:37:50.420Z,99.90
2022-08-05T00:40:27.114Z,99.90
2022-08-05T00:43:01.671Z,99.90
2022-08-05T00:45:42.792Z,99.90
2022-08-05T00:48:31.201Z,99.90
2022-08-05T00:50:58.782Z,99.90
2022-08-05T00:54:00.547Z,99.90
2022-08-05T00:56:17.207Z,99.90
2022-08-05T00:58:45.165Z,99.90
2022-08-05T01:01:15.427Z,99.90
2022-08-05T01:03:54.679Z,99.90
2022-08-05T01:06:21.873Z,99.90
2022-08-05T01:09:00.510Z,99.90
2022-08-05T01:11:37.185Z,99.90
2022-08-05T01:14:28.297Z,99.90
2022-08-05T01:17:07.908Z,99.90
2022-08-05T01:20:01.417Z,99.90
2022-08-05T01:23:14.311Z,99.90
2022-08-05T01:26:04.477Z,99.90
2022-08-05T01:29:05.524Z,99.90
2022-08-05T01:31:54.247Z,99.90
2022-08-05T01:34:36.639Z,99.90
2022-08-05T01:37:13.964Z,99.90
2022-08-05T01:39:54.942Z,99.90
2022-08-05T01:42:27.917Z,99.90
2022-08-05T01:45:03.185Z,99.90
2022-08-05T01:47:39.462Z,99.90
2022-08-05T01:50:28.834Z,99.90
2022-08-05T01:53:01.419Z,99.90
2022-08-05T01:55:32.543Z,99.90
2022-08-05T01:58:10.465Z,99.90
2022-08-05T02:00:48.191Z,99.90
2022-08-05T02:03:31.303Z,99.90
2022-08-05T02:06:03.731Z,99.90
2022-08-05T02:08:58.393Z,99.90
2022-08-05T02:11:33.184Z,99.90
2022-08-05T02:14:14.942Z,99.90
2022-08-05T02:17:00.919Z,99.90
2022-08-05T02:19:34.931Z,99.90
2022-08-05T02:22:25.784Z,99.90
2022-08-05T02:25:02.893Z,99.90
2022-08-05T02:27:58.070Z,99.90
2022-08-05T02:30:23.246Z,99.90
2022-08-05T02:32:55.686Z,99.90
2022-08-05T02:35:28.237Z,99.90
2022-08-05T02:38:02.257Z,99.90
2022-08-05T02:40:31.298Z,99.90
2022-08-05T02:42:59.615Z,99.90
2022-08-05T02:45:28.717Z,99.90
2022-08-05T02:48:17.159Z,99.90
2022-08-05T02:50:47.306Z,99.90
2022-08-05T02:53:19.024Z,99.90
2022-08-05T02:56:00.051Z,99.90
2022-08-05T02:58:30.809Z,99.90
2022-08-05T03:01:02.275Z,99.90
2022-08-05T03:03:33.835Z,99.90
2022-08-05T03:06:55.890Z,99.90
2022-08-05T03:09:08.095Z,99.90
2022-08-05T03:11:55.999Z,99.90
2022-08-05T03:14:22.586Z,99.90
2022-08-05T03:16:49.779Z,99.90
2022-08-05T03:19:33.259Z,99.90
2022-08-05T03:22:01.436Z,99.90
2022-08-05T03:24:30.393Z,99.90
2022-08-05T03:27:01.074Z,99.90
2022-08-05T03:29:45.407Z,99.90
2022-08-05T03:32:19.887Z,99.90
2022-08-05T03:34:50.432Z,99.90
2022-08-05T03:37:22.668Z,99.90
2022-08-05T03:39:59.308Z,99.90
2022-08-05T03:42:29.042Z,99.90
2022-08-05T03:44:59.147Z,99.90
2022-08-05T03:47:35.233Z,99.90
2022-08-05T03:50:03.030Z,99.90
2022-08-05T03:55:07.186Z,99.90
2022-08-05T03:56:00.689Z,99.90
2022-08-05T03:58:29.063Z,99.90
2022-08-05T04:01:00.278Z,99.90
2022-08-05T04:03:29.666Z,99.90
2022-08-05T04:05:59.210Z,99.90
2022-08-05T04:08:34.606Z,99.90
2022-08-05T04:11:07.376Z,99.90
2022-08-05T04:13:50.247Z,99.90
2022-08-05T04:16:24.912Z,99.90
2022-08-05T04:18:54.794Z,99.90
2022-08-05T04:22:09.205Z,99.90
2022-08-05T04:24:18.927Z,99.90
2022-08-05T04:26:49.785Z,99.90
2022-08-05T04:29:17.258Z,99.90
2022-08-05T04:31:44.414Z,99.90
2022-08-05T04:34:19.634Z,99.90
2022-08-05T04:37:00.943Z,99.90
2022-08-05T04:39:31.325Z,99.90
2022-08-05T04:41:59.433Z,99.90
2022-08-05T04:44:29.937Z,99.90
2022-08-05T04:47:09.362Z,99.90
2022-08-05T04:50:01.445Z,99.90
2022-08-05T04:52:27.628Z,99.90
2022-08-05T04:54:57.391Z,99.90
2022-08-05T04:57:29.214Z,99.90
2022-08-05T04:59:58.497Z,99.90
2022-08-05T05:02:41.446Z,99.90
2022-08-05T05:05:26.624Z,99.90
2022-08-05T05:08:05.624Z,99.90
2022-08-05T05:10:55.946Z,99.90
2022-08-05T05:13:23.765Z,99.90
2022-08-05T05:15:56.689Z,99.90
2022-08-05T05:18:31.362Z,99.90
2022-08-05T05:21:02.145Z,99.90
2022-08-05T05:24:02.412Z,99.90
2022-08-05T05:26:17.719Z,99.90
2022-08-05T05:28:45.360Z,99.90
2022-08-05T05:31:12.913Z,99.90
2022-08-05T05:33:58.847Z,99.90
2022-08-05T05:36:28.527Z,99.90
2022-08-05T05:38:57.567Z,99.90
2022-08-05T05:41:25.047Z,99.90
2022-08-05T05:44:37.007Z,99.90
2022-08-05T05:46:54.532Z,99.90
2022-08-05T05:49:25.426Z,99.90
2022-08-05T05:51:53.548Z,99.90
2022-08-05T05:54:21.034Z,99.90
2022-08-05T05:56:48.297Z,99.90
2022-08-05T05:59:15.510Z,99.90
2022-08-05T06:01:57.767Z,99.90
2022-08-05T06:04:25.477Z,99.90
2022-08-05T06:06:52.726Z,99.90
2022-08-05T06:09:27.484Z,99.90
2022-08-05T06:12:09.688Z,99.90
2022-08-05T06:14:40.204Z,99.90
2022-08-05T06:17:24.303Z,99.90
2022-08-05T06:19:57.129Z,99.90
2022-08-05T06:22:28.962Z,99.90
2022-08-05T06:24:57.629Z,99.90
2022-08-05T06:28:12.174Z,99.90
2022-08-05T06:30:17.950Z,99.90
2022-08-05T06:32:50.764Z,99.90
2022-08-05T06:36:03.886Z,99.90
2022-08-05T06:38:08.312Z,99.90
2022-08-05T06:40:44.256Z,99.90
2022-08-05T06:43:51.693Z,99.90
2022-08-05T06:46:06.964Z,99.90
2022-08-05T06:48:56.370Z,99.90
2022-08-05T06:51:30.161Z,99.90
2022-08-05T06:54:03.303Z,99.90
2022-08-05T06:56:34.270Z,99.90
2022-08-05T06:59:03.645Z,99.90
2022-08-05T07:01:36.094Z,99.90
2022-08-05T07:04:04.127Z,99.90
2022-08-05T07:06:31.986Z,99.90
2022-08-05T07:09:04.143Z,99.90
2022-08-05T07:11:37.044Z,99.90
2022-08-05T07:14:29.612Z,99.90
2022-08-05T07:18:02.278Z,99.90
2022-08-05T07:22:43.921Z,99.90
2022-08-05T07:25:55.577Z,99.90
2022-08-05T07:28:12.653Z,99.90
2022-08-05T07:30:56.398Z,99.90
2022-08-05T07:33:36.634Z,99.90
2022-08-05T07:36:20.862Z,99.90
2022-08-05T07:38:54.704Z,99.90
2022-08-05T07:42:13.103Z,99.90
2022-08-05T07:44:18.982Z,99.90
2022-08-05T07:46:54.917Z,99.90
2022-08-05T07:49:25.984Z,99.90
2022-08-05T07:51:55.170Z,99.90
2022-08-05T07:54:38.548Z,99.90
2022-08-05T07:58:02.434Z,99.90
2022-08-05T08:00:28.223Z,99.90
2022-08-05T08:03:16.112Z,99.90
2022-08-05T08:05:56.458Z,99.90
2022-08-05T08:08:45.969Z,99.90
2022-08-05T08:12:00.285Z,99.90
2022-08-05T08:14:41.097Z,99.90
2022-08-05T08:17:17.378Z,99.90
2022-08-05T08:21:03.379Z,99.90
2022-08-05T08:24:50.994Z,99.90
2022-08-05T08:31:27.194Z,99.90
2022-08-05T08:35:26.669Z,99.90
2022-08-05T08:45:18.095Z,99.90
2022-08-05T08:50:52.826Z,99.90
2022-08-05T09:06:24.311Z,99.90
2022-08-05T10:01:58.234Z,99.90
2022-08-05T10:19:09.484Z,99.90
2022-08-05T10:19:12.872Z,99.90
2022-08-05T10:21:40.803Z,99.90
2022-08-05T10:25:01.564Z,99.90
2022-08-05T10:28:53.712Z,99.90
2022-08-05T10:33:01.020Z,99.90
2022-08-05T10:35:40.628Z,99.90
2022-08-05T10:38:33.046Z,99.90
2022-08-05T10:48:53.001Z,99.90
2022-08-05T10:51:28.706Z,99.90
2022-08-05T10:54:05.620Z,99.90
2022-08-05T10:56:45.594Z,99.90
2022-08-05T11:00:04.183Z,99.90
2022-08-05T11:02:14.469Z,99.90
2022-08-05T11:04:58.658Z,99.90
2022-08-05T11:07:33.338Z,99.90
2022-08-05T11:10:23.212Z,99.90
2022-08-05T11:12:56.546Z,99.90
2022-08-05T11:16:00.235Z,99.90
2022-08-05T11:18:34.025Z,99.90
2022-08-05T11:21:11.762Z,99.90
2022-08-05T11:24:04.625Z,99.90
2022-08-05T11:26:32.484Z,96.20
2022-08-05T11:29:13.345Z,94.80
2022-08-05T11:31:57.045Z,98.50
2022-08-05T11:34:47.647Z,99.90
2022-08-05T11:38:36.505Z,99.90
2022-08-05T11:41:35.556Z,99.90
2022-08-05T11:44:40.463Z,99.90
2022-08-05T11:47:10.882Z,98.30
2022-08-05T11:49:43.356Z,91.10
2022-08-05T11:52:29.176Z,92.30
2022-08-05T11:54:58.605Z,91.30
2022-08-05T11:57:30.640Z,83.90
2022-08-05T12:00:28.722Z,77.00
2022-08-05T12:02:56.690Z,74.10
2022-08-05T12:05:32.332Z,74.00
2022-08-05T12:08:11.279Z,72.40
2022-08-05T12:10:45.490Z,74.20
2022-08-05T12:13:17.087Z,70.10
2022-08-05T12:15:49.998Z,64.90
2022-08-05T12:18:19.051Z,65.20
2022-08-05T12:20:48.202Z,64.30
2022-08-05T12:23:16.643Z,67.90
2022-08-05T12:25:56.863Z,68.10
2022-08-05T12:28:34.899Z,66.60
2022-08-05T12:31:07.185Z,67.10
2022-08-05T12:33:45.997Z,65.50
2022-08-05T12:36:27.566Z,64.20
2022-08-05T12:39:09.277Z,61.90
2022-08-05T12:46:29.220Z,67.60
2022-08-05T12:49:12.949Z,71.80
2022-08-05T12:55:39.535Z,92.20
2022-08-05T12:58:49.557Z,99.90
2022-08-05T13:02:03.964Z,99.90
2022-08-05T13:04:41.680Z,99.90
2022-08-05T13:10:28.651Z,99.90
2022-08-05T13:13:06.494Z,99.90
2022-08-05T13:15:50.204Z,99.90
2022-08-05T13:18:20.185Z,99.90
2022-08-05T13:20:50.311Z,99.90
2022-08-05T13:23:22.884Z,99.90
2022-08-05T13:25:59.513Z,99.90
2022-08-05T13:28:29.088Z,99.90
2022-08-05T13:30:59.493Z,99.90
2022-08-05T13:34:21.465Z,99.90
2022-08-05T13:36:18.419Z,99.90
2022-08-05T13:38:45.802Z,99.90
2022-08-05T13:41:19.352Z,99.90
2022-08-05T13:43:55.170Z,99.90
2022-08-05T13:46:50.880Z,99.90
2022-08-05T13:49:11.723Z,99.90
2022-08-05T13:51:46.438Z,99.90
2022-08-05T13:54:17.173Z,99.90
2022-08-05T13:56:50.996Z,99.90
2022-08-05T13:59:24.591Z,99.90
2022-08-05T14:01:58.166Z,99.90
2022-08-05T14:04:52.599Z,97.70
2022-08-05T14:07:26.538Z,96.40
2022-08-05T14:10:11.194Z,92.20
2022-08-05T14:12:38.507Z,92.90
2022-08-05T14:16:07.118Z,90.60
2022-08-05T14:17:57.758Z,88.10
2022-08-05T14:20:29.352Z,82.50
2022-08-05T14:23:00.207Z,80.90
2022-08-05T14:25:30.190Z,81.90
2022-08-05T14:27:58.593Z,80.20
2022-08-05T14:30:28.038Z,78.40
2022-08-05T14:32:56.760Z,79.60
2022-08-05T14:35:37.577Z,80.60
2022-08-05T14:38:27.705Z,81.80
2022-08-05T14:40:59.042Z,82.50
2022-08-05T14:44:02.575Z,81.70
2022-08-05T14:46:13.500Z,87.50
2022-08-05T14:48:40.774Z,88.00
2022-08-05T14:51:08.750Z,88.30
2022-08-05T14:53:44.377Z,90.30
2022-08-05T14:56:13.296Z,87.50
2022-08-05T14:58:47.799Z,87.40
2022-08-05T15:01:24.487Z,84.50
2022-08-05T15:04:11.485Z,79.40
2022-08-05T15:06:40.400Z,75.70
2022-08-05T15:09:07.979Z,77.20
2022-08-05T15:11:51.628Z,84.30
2022-08-05T15:14:35.097Z,80.40
2022-08-05T15:17:10.032Z,81.10
2022-08-05T15:19:56.976Z,81.60
2022-08-05T15:22:27.249Z,82.00
2022-08-05T15:24:58.855Z,81.60
2022-08-05T15:27:26.267Z,80.20
2022-08-05T15:29:59.572Z,76.30
2022-08-05T15:32:27.357Z,76.00
2022-08-05T15:34:57.359Z,80.70
2022-08-05T15:38:33.291Z,80.40
2022-08-05T15:41:00.502Z,79.40
2022-08-05T15:43:12.616Z,81.10
2022-08-05T15:45:47.395Z,83.10
2022-08-05T15:48:15.275Z,78.60
2022-08-05T15:50:43.612Z,77.40
2022-08-05T15:53:13.825Z,80.40
2022-08-05T15:56:01.187Z,82.60
2022-08-05T15:58:29.731Z,84.80
2022-08-05T16:01:11.874Z,85.20
2022-08-05T16:03:44.814Z,86.60
2022-08-05T16:06:20.299Z,84.30
2022-08-05T16:08:51.242Z,82.20
2022-08-05T16:11:42.728Z,78.10
2022-08-05T16:14:10.220Z,71.20
2022-08-05T16:16:46.002Z,71.10
2022-08-05T16:19:25.627Z,67.10
2022-08-05T16:22:03.453Z,70.70
2022-08-05T16:24:41.222Z,72.50
2022-08-05T16:27:18.198Z,72.80
2022-08-05T16:29:50.957Z,73.80
2022-08-05T16:32:28.756Z,75.00
2022-08-05T16:34:58.791Z,76.60
2022-08-05T16:38:15.391Z,77.80
2022-08-05T16:40:26.471Z,78.40
2022-08-05T16:42:57.078Z,77.10
2022-08-05T16:46:03.673Z,79.00
2022-08-05T16:48:11.507Z,81.50
2022-08-05T16:50:53.209Z,84.20
2022-08-05T16:53:22.915Z,87.60
2022-08-05T16:55:59.239Z,86.20
2022-08-05T16:58:26.900Z,85.10
2022-08-05T17:00:54.217Z,85.50
2022-08-05T17:03:22.302Z,87.00
2022-08-05T17:05:53.857Z,89.20
2022-08-05T17:08:36.777Z,88.60
2022-08-05T17:11:12.730Z,87.60
2022-08-05T17:13:45.432Z,87.80
2022-08-05T17:16:29.756Z,88.20
2022-08-05T17:19:00.838Z,88.20
2022-08-05T17:21:35.441Z,88.50
2022-08-05T17:24:30.327Z,89.40
2022-08-05T17:26:58.854Z,89.90
2022-08-05T17:29:33.915Z,90.30
2022-08-05T17:32:11.405Z,90.20
2022-08-05T17:34:48.081Z,90.70
2022-08-05T17:37:36.019Z,90.30
2022-08-05T17:40:10.096Z,89.40
2022-08-05T17:42:41.670Z,90.40
2022-08-05T17:45:22.093Z,88.60
2022-08-05T17:47:55.727Z,91.10
2022-08-05T17:50:28.435Z,91.40
2022-08-05T17:53:02.350Z,92.20
2022-08-05T17:55:37.710Z,92.10
2022-08-05T17:58:09.570Z,92.20
2022-08-05T18:00:44.593Z,92.90
2022-08-05T18:03:24.110Z,93.80
2022-08-05T18:06:05.619Z,95.00
2022-08-05T18:08:33.581Z,94.80
2022-08-05T18:11:01.227Z,94.10
2022-08-05T18:13:36.440Z,94.50
2022-08-05T18:16:04.824Z,93.40
2022-08-05T18:18:33.634Z,95.00
2022-08-05T18:21:13.320Z,95.20
2022-08-05T18:23:47.394Z,96.30
2022-08-05T18:26:14.677Z,97.40
2022-08-05T18:28:46.365Z,97.90
2022-08-05T18:31:15.805Z,99.10
2022-08-05T18:33:47.095Z,99.90
2022-08-05T18:36:17.490Z,99.90
2022-08-05T18:38:46.562Z,99.90
2022-08-05T18:41:58.404Z,99.90
2022-08-05T18:44:05.711Z,99.90
2022-08-05T18:46:33.891Z,99.90
2022-08-05T18:49:19.811Z,99.90
2022-08-05T18:52:08.785Z,99.90
2022-08-05T18:54:36.389Z,99.90
2022-08-05T18:57:09.540Z,99.90
2022-08-05T19:00:01.822Z,99.90
2022-08-05T19:02:29.708Z,99.90
2022-08-05T19:05:02.965Z,99.90
2022-08-05T19:07:49.522Z,99.90
2022-08-05T19:10:26.444Z,99.90
2022-08-05T19:12:53.957Z,99.90
2022-08-05T19:15:56.885Z,99.90
2022-08-05T19:18:13.652Z,99.90
2022-08-05T19:20:52.042Z,99.90
2022-08-05T19:24:03.904Z,99.90
2022-08-05T19:26:09.185Z,99.90
2022-08-05T19:28:43.688Z,99.90
2022-08-05T19:31:13.534Z,99.90
2022-08-05T19:33:48.710Z,99.90
2022-08-05T19:36:29.441Z,99.90
2022-08-05T19:39:00.565Z,99.90
2022-08-05T19:42:05.732Z,99.90
2022-08-05T19:44:18.382Z,99.90
2022-08-05T19:46:46.176Z,99.90
2022-08-05T19:49:17.004Z,99.90
2022-08-05T19:52:09.219Z,99.90
2022-08-05T19:54:34.835Z,99.90
2022-08-05T19:57:06.669Z,99.90
2022-08-05T19:59:56.004Z,99.90
2022-08-05T20:02:27.030Z,99.90
2022-08-05T20:04:58.273Z,99.90
2022-08-05T20:07:47.981Z,99.90
2022-08-05T20:10:16.631Z,99.90
2022-08-05T20:12:47.808Z,99.90
2022-08-05T20:15:23.329Z,99.90
2022-08-05T20:18:10.384Z,99.90
2022-08-05T20:20:57.162Z,99.90
2022-08-05T20:23:40.765Z,99.90
2022-08-05T20:26:16.083Z,99.90
2022-08-05T20:28:56.797Z,99.90
2022-08-05T20:31:37.074Z,99.90
2022-08-05T20:34:11.730Z,99.90
2022-08-05T20:36:43.425Z,99.90
2022-08-05T20:39:13.309Z,99.90
2022-08-05T20:41:44.027Z,99.90
2022-08-05T20:44:28.999Z,99.90
2022-08-05T20:46:59.805Z,99.90
2022-08-05T20:49:27.386Z,99.90
2022-08-05T20:51:55.723Z,99.90
2022-08-05T20:54:55.418Z,99.90
2022-08-05T20:57:15.005Z,99.90
2022-08-05T21:00:20.738Z,99.90
2022-08-05T21:02:54.488Z,99.90
2022-08-05T21:05:24.541Z,99.90
2022-08-05T21:07:52.560Z,99.90
2022-08-05T21:10:20.767Z,99.90
2022-08-05T21:12:58.114Z,99.90
2022-08-05T21:15:36.779Z,99.90
2022-08-05T21:18:04.551Z,99.90
2022-08-05T21:20:32.753Z,99.90
2022-08-05T21:23:00.922Z,99.90
2022-08-05T21:25:33.550Z,99.90
2022-08-05T21:28:02.448Z,99.90
2022-08-05T21:30:37.123Z,99.90
2022-08-05T21:33:08.365Z,99.90
2022-08-05T21:35:56.007Z,99.90
2022-08-05T21:38:26.661Z,99.90
2022-08-05T21:40:54.008Z,99.90
2022-08-05T21:43:24.534Z,99.90
2022-08-05T21:45:57.727Z,99.90
2022-08-05T21:48:31.730Z,99.90
2022-08-05T21:51:01.585Z,99.90
2022-08-05T21:53:28.797Z,99.90
2022-08-05T21:56:16.340Z,99.90
2022-08-05T21:58:57.293Z,99.90
2022-08-05T22:01:26.311Z,99.90
2022-08-05T22:03:56.446Z,99.90
2022-08-05T22:06:35.361Z,99.90
2022-08-05T22:09:15.182Z,99.90
2022-08-05T22:11:48.137Z,99.90
2022-08-05T22:14:35.176Z,99.90
2022-08-05T22:17:07.011Z,99.90
2022-08-05T22:19:57.512Z,99.90
2022-08-05T22:22:27.254Z,99.90
2022-08-05T22:25:18.250Z,99.90
2022-08-05T22:28:04.854Z,99.90
2022-08-05T22:30:55.531Z,99.90
2022-08-05T22:33:55.818Z,99.90
2022-08-05T22:36:14.296Z,99.90
2022-08-05T22:38:48.063Z,99.90
2022-08-05T22:42:05.711Z,99.90
2022-08-05T22:44:06.213Z,99.90
2022-08-05T22:46:33.597Z,99.90
2022-08-05T22:49:07.970Z,99.90
2022-08-05T22:52:05.736Z,99.90
2022-08-05T22:54:36.117Z,99.90
2022-08-05T22:57:05.004Z,99.90
2022-08-05T22:59:48.333Z,99.90
2022-08-05T23:02:29.201Z,99.90
2022-08-05T23:05:01.904Z,99.90
2022-08-05T23:07:45.156Z,99.90
2022-08-05T23:10:20.008Z,99.90
2022-08-05T23:12:54.462Z,99.90
2022-08-05T23:15:29.859Z,99.90
2022-08-05T23:18:06.193Z,99.90
2022-08-05T23:20:39.504Z,99.90
2022-08-05T23:23:08.000Z,99.90
2022-08-05T23:25:52.859Z,99.90
2022-08-05T23:28:29.104Z,99.90
2022-08-05T23:31:15.839Z,99.90
2022-08-05T23:34:05.471Z,99.90
2022-08-05T23:36:40.161Z,99.90
2022-08-05T23:39:17.161Z,99.90
2022-08-05T23:41:51.635Z,99.90
2022-08-05T23:44:19.854Z,99.90
2022-08-05T23:46:49.871Z,99.90
2022-08-05T23:49:22.375Z,99.90
2022-08-05T23:52:11.349Z,99.90
2022-08-05T23:54:38.872Z,99.90
2022-08-05T23:57:07.015Z,99.90
